createdAt,value
2023-02-24T00:03:21.743Z,12.33
2023-02-24T00:08:23.864Z,12.00
2023-02-24T00:13:26.170Z,12.63
2023-02-24T00:18:29.586Z,12.87
2023-02-24T00:23:31.692Z,12.43
2023-02-24T00:28:34.156Z,13.13
2023-02-24T00:33:37.877Z,12.33
2023-02-24T00:38:40.909Z,12.53
2023-02-24T00:43:44.008Z,13.07
2023-02-24T00:48:49.568Z,12.87
2023-02-24T00:53:53.133Z,12.07
2023-02-24T00:58:56.427Z,11.23
2023-02-24T01:04:00.998Z,9.00
2023-02-24T01:09:03.100Z,6.77
2023-02-24T01:14:06.727Z,5.90
2023-02-24T01:19:10.683Z,6.50
2023-02-24T01:24:13.193Z,4.60
2023-02-24T01:29:15.320Z,4.40
2023-02-24T01:34:19.282Z,3.57
2023-02-24T01:39:21.165Z,3.50
2023-02-24T01:45:00.759Z,3.87
2023-02-24T01:50:05.390Z,2.77
2023-02-24T01:55:10.927Z,1.93
2023-02-24T02:00:15.668Z,1.87
2023-02-24T02:05:19.423Z,2.33
2023-02-24T02:10:21.271Z,1.80
2023-02-24T02:15:23.847Z,1.30
2023-02-24T02:20:52.889Z,2.43
2023-02-24T02:26:28.646Z,2.20
2023-02-24T02:31:55.702Z,1.80
2023-02-24T02:37:05.400Z,2.37
2023-02-24T02:42:16.400Z,2.07
2023-02-24T02:47:26.682Z,2.50
2023-02-24T02:52:36.164Z,2.00
2023-02-24T02:57:43.298Z,2.87
2023-02-24T03:02:49.852Z,1.73
2023-02-24T03:07:55.704Z,1.57
2023-02-24T03:13:00.907Z,1.13
2023-02-24T03:18:07.871Z,1.30
2023-02-24T03:23:15.293Z,1.90
2023-02-24T03:28:22.525Z,1.47
2023-02-24T03:33:31.373Z,2.03
2023-02-24T03:38:35.114Z,1.47
2023-02-24T03:49:22.998Z,1.27
2023-02-24T03:54:45.088Z,1.40
2023-02-24T04:00:14.714Z,1.50
2023-02-24T04:05:21.899Z,1.80
2023-02-24T04:10:31.904Z,1.33
2023-02-24T04:15:41.361Z,1.30
2023-02-24T04:20:46.179Z,1.53
2023-02-24T04:25:52.174Z,1.47
2023-02-24T04:30:58.982Z,1.60
2023-02-24T04:36:01.221Z,1.53
2023-02-24T04:41:05.082Z,1.50
2023-02-24T04:46:07.137Z,1.87
2023-02-24T04:51:09.228Z,0.83
2023-02-24T04:56:12.806Z,3.00
2023-02-24T05:01:14.882Z,0.97
2023-02-24T05:06:17.927Z,1.23
2023-02-24T05:11:21.688Z,1.00
2023-02-24T05:16:24.220Z,1.20
2023-02-24T05:21:26.657Z,1.10
2023-02-24T05:26:30.182Z,1.10
2023-02-24T05:31:32.438Z,1.13
2023-02-24T05:36:38.041Z,1.03
2023-02-24T05:41:43.310Z,1.90
2023-02-24T05:46:46.189Z,1.40
2023-02-24T05:51:48.335Z,3.10
2023-02-24T05:56:52.202Z,2.50
2023-02-24T06:01:54.573Z,0.90
2023-02-24T06:06:56.945Z,0.90
2023-02-24T06:12:00.540Z,1.00
2023-02-24T06:17:02.499Z,0.90
2023-02-24T06:22:04.901Z,1.13
2023-02-24T06:27:08.640Z,1.67
2023-02-24T06:32:10.978Z,0.80
2023-02-24T06:37:15.417Z,1.50
2023-02-24T06:42:18.932Z,1.00
2023-02-24T06:47:21.038Z,1.20
2023-02-24T06:52:22.736Z,0.67
2023-02-24T06:57:26.359Z,0.93
2023-02-24T07:02:28.458Z,1.10
2023-02-24T07:07:30.752Z,1.37
2023-02-24T07:12:34.256Z,1.07
2023-02-24T07:17:36.462Z,1.27
2023-02-24T07:22:39.495Z,1.13
2023-02-24T07:27:42.634Z,0.77
2023-02-24T07:32:44.998Z,1.07
2023-02-24T07:37:47.470Z,1.00
2023-02-24T07:42:53.798Z,0.93
2023-02-24T07:47:56.228Z,0.80
2023-02-24T07:52:58.711Z,1.00
2023-02-24T07:58:02.011Z,1.03
2023-02-24T08:03:04.227Z,1.13
2023-02-24T08:08:06.455Z,0.80
2023-02-24T08:13:10.313Z,0.83
2023-02-24T08:18:12.752Z,0.83
2023-02-24T08:23:15.154Z,0.87
2023-02-24T08:28:18.809Z,1.10
2023-02-24T08:33:22.583Z,1.23
2023-02-24T08:38:26.527Z,1.27
2023-02-24T08:43:32.371Z,1.37
2023-02-24T08:48:36.341Z,1.30
2023-02-24T08:53:39.626Z,0.93
2023-02-24T08:58:44.745Z,1.13
2023-02-24T09:03:48.578Z,1.00
2023-02-24T09:08:51.345Z,1.17
2023-02-24T09:13:54.904Z,1.20
2023-02-24T09:18:57.044Z,0.80
2023-02-24T09:23:59.779Z,0.90
2023-02-24T09:29:03.313Z,0.97
2023-02-24T09:34:05.572Z,1.10
2023-02-24T09:39:08.442Z,0.83
2023-02-24T09:44:17.193Z,1.17
2023-02-24T09:49:23.118Z,0.70
2023-02-24T09:54:30.184Z,1.00
2023-02-24T09:59:43.656Z,0.53
2023-02-24T10:05:00.728Z,0.87
2023-02-24T10:10:08.015Z,0.90
2023-02-24T10:15:15.618Z,0.70
2023-02-24T10:20:20.608Z,0.60
2023-02-24T10:25:30.974Z,0.70
2023-02-24T10:30:45.304Z,0.70
2023-02-24T10:35:47.817Z,0.83
2023-02-24T10:40:53.978Z,0.70
2023-02-24T10:46:00.037Z,0.70
2023-02-24T10:51:09.465Z,0.70
2023-02-24T10:56:14.902Z,0.83
2023-02-24T11:07:21.672Z,0.60
2023-02-24T11:12:25.439Z,0.70
2023-02-24T11:17:28.920Z,1.20
2023-02-24T11:22:34.163Z,0.83
2023-02-24T11:27:36.573Z,0.70
2023-02-24T11:32:53.830Z,1.10
2023-02-24T11:38:04.284Z,0.83
2023-02-24T11:43:11.997Z,0.67
2023-02-24T11:48:20.156Z,0.80
2023-02-24T11:53:44.088Z,0.60
2023-02-24T11:58:54.256Z,0.80
2023-02-24T12:04:10.072Z,0.80
2023-02-24T12:15:10.818Z,1.10
2023-02-24T12:20:23.577Z,1.27
2023-02-24T12:25:29.692Z,1.53
2023-02-24T12:30:46.001Z,1.20
2023-02-24T12:36:01.381Z,1.83
2023-02-24T12:41:19.538Z,1.80
2023-02-24T12:46:26.617Z,1.70
2023-02-24T12:51:35.631Z,1.40
2023-02-24T12:56:47.049Z,1.60
2023-02-24T13:01:57.450Z,1.37
2023-02-24T13:07:17.852Z,0.93
2023-02-24T13:12:26.602Z,1.17
2023-02-24T13:17:47.192Z,1.30
2023-02-24T13:28:33.450Z,0.97
2023-02-24T13:33:37.910Z,1.10
2023-02-24T13:38:43.680Z,1.10
2023-02-24T13:43:54.716Z,1.23
2023-02-24T13:49:26.207Z,1.53
2023-02-24T13:55:03.270Z,1.20
2023-02-24T14:00:11.511Z,1.30
2023-02-24T14:05:22.254Z,1.57
2023-02-24T14:10:29.032Z,0.87
2023-02-24T14:15:31.524Z,1.40
2023-02-24T14:20:35.143Z,1.20
2023-02-24T14:25:39.435Z,1.10
2023-02-24T14:30:42.021Z,1.30
2023-02-24T14:35:47.846Z,0.97
2023-02-24T14:40:51.373Z,1.00
2023-02-24T14:45:54.512Z,1.10
2023-02-24T14:51:03.083Z,0.93
2023-02-24T14:56:07.320Z,0.90
2023-02-24T15:01:20.271Z,1.43
2023-02-24T15:06:25.223Z,0.93
2023-02-24T15:11:31.227Z,0.90
2023-02-24T15:16:38.844Z,1.27
2023-02-24T15:21:41.855Z,1.13
2023-02-24T15:26:52.774Z,1.27
2023-02-24T15:31:56.603Z,1.17
2023-02-24T15:37:01.991Z,1.33
2023-02-24T15:42:10.211Z,1.50
2023-02-24T15:47:22.133Z,1.50
2023-02-24T15:52:26.892Z,1.50
2023-02-24T15:57:31.986Z,1.93
2023-02-24T16:02:34.124Z,1.83
2023-02-24T16:07:38.372Z,2.70
2023-02-24T16:12:47.997Z,2.40
2023-02-24T16:18:14.509Z,2.40
2023-02-24T16:23:16.660Z,2.60
2023-02-24T16:28:21.857Z,3.03
2023-02-24T16:33:24.410Z,2.53
2023-02-24T16:38:27.221Z,3.60
2023-02-24T16:43:30.635Z,3.57
2023-02-24T16:48:35.226Z,4.87
2023-02-24T16:53:37.363Z,4.40
2023-02-24T16:58:41.081Z,4.67
2023-02-24T17:03:45.712Z,4.70
2023-02-24T17:08:47.790Z,5.07
2023-02-24T17:13:51.192Z,5.73
2023-02-24T17:18:53.560Z,5.90
2023-02-24T17:23:55.679Z,6.03
2023-02-24T17:28:59.095Z,6.20
2023-02-24T17:34:01.401Z,6.27
2023-02-24T17:39:03.766Z,6.43
2023-02-24T17:44:23.610Z,6.20
2023-02-24T17:55:29.897Z,7.80
2023-02-24T18:00:40.883Z,7.23
2023-02-24T18:05:42.691Z,7.93
2023-02-24T18:10:45.396Z,7.73
2023-02-24T18:15:49.325Z,7.93
2023-02-24T18:20:51.585Z,8.30
2023-02-24T18:25:54.429Z,8.50
2023-02-24T18:30:58.733Z,8.83
2023-02-24T18:36:02.173Z,9.60
2023-02-24T18:41:07.470Z,8.30
2023-02-24T18:46:13.550Z,7.70
2023-02-24T18:51:18.485Z,9.40
2023-02-24T18:56:23.076Z,8.57
2023-02-24T19:01:30.677Z,8.93
2023-02-24T19:06:34.145Z,9.20
2023-02-24T19:11:37.108Z,8.57
2023-02-24T19:16:41.528Z,8.30
2023-02-24T19:21:44.406Z,9.20
2023-02-24T19:26:46.462Z,9.10
2023-02-24T19:31:50.109Z,9.40
2023-02-24T19:36:51.956Z,8.97
2023-02-24T19:41:54.286Z,8.40
2023-02-24T19:46:57.832Z,9.43
2023-02-24T19:52:00.339Z,9.00
2023-02-24T19:57:02.967Z,8.93
2023-02-24T20:02:06.996Z,10.00
2023-02-24T20:07:09.257Z,10.13
2023-02-24T20:12:11.837Z,9.47
2023-02-24T20:17:15.278Z,9.60
2023-02-24T20:22:17.589Z,10.43
2023-02-24T20:27:32.214Z,9.83
2023-02-24T20:32:35.659Z,9.27
2023-02-24T20:37:37.475Z,10.97
2023-02-24T20:42:40.018Z,9.27
2023-02-24T20:47:43.206Z,10.60
2023-02-24T20:52:45.195Z,11.00
2023-02-24T20:57:46.923Z,10.93
2023-02-24T21:02:50.357Z,9.60
2023-02-24T21:07:53.513Z,10.37
2023-02-24T21:12:55.606Z,10.43
2023-02-24T21:17:59.337Z,10.33
2023-02-24T21:23:01.161Z,10.80
2023-02-24T21:28:03.072Z,10.70
2023-02-24T21:33:06.529Z,11.37
2023-02-24T21:38:09.177Z,10.83
2023-02-24T21:43:11.527Z,9.83
2023-02-24T21:48:15.267Z,9.83
2023-02-24T21:53:17.297Z,9.70
2023-02-24T21:58:20.349Z,9.17
2023-02-24T22:03:24.939Z,9.70
2023-02-24T22:08:51.286Z,8.20
2023-02-24T22:13:53.558Z,8.27
2023-02-24T22:18:56.969Z,7.43
2023-02-24T22:24:01.630Z,6.63
2023-02-24T22:29:03.990Z,6.93
2023-02-24T22:34:07.587Z,5.37
2023-02-24T22:39:10.067Z,4.60
2023-02-24T22:44:12.538Z,3.90
2023-02-24T22:49:16.374Z,3.57
2023-02-24T22:54:19.074Z,2.90
2023-02-24T22:59:21.063Z,2.70
2023-02-24T23:04:24.541Z,2.67
2023-02-24T23:09:26.775Z,2.50
2023-02-24T23:14:29.272Z,2.03
2023-02-24T23:19:32.888Z,2.10
2023-02-24T23:24:34.953Z,1.87
2023-02-24T23:29:37.119Z,1.43
2023-02-24T23:34:40.782Z,1.10
2023-02-24T23:39:42.964Z,1.93
2023-02-24T23:44:45.531Z,1.93
2023-02-24T23:49:48.973Z,1.70
2023-02-24T23:54:50.991Z,1.80
2023-02-24T23:59:53.046Z,1.60
